sensor_id;sensor_type;location;lat;lon;timestamp;P1;durP1;ratioP1;P2;durP2;ratioP2
76865;SDS011;66647;52.124;5.416;2023-04-06T00:02:16;7.00;;;2.85;;
76865;SDS011;66647;52.124;5.416;2023-04-06T00:04:43;9.18;;;3.33;;
76865;SDS011;66647;52.124;5.416;2023-04-06T00:07:10;6.75;;;2.13;;
76865;SDS011;66647;52.124;5.416;2023-04-06T00:09:36;7.63;;;3.38;;
76865;SDS011;66647;52.124;5.416;2023-04-06T00:12:03;7.78;;;2.45;;
76865;SDS011;66647;52.124;5.416;2023-04-06T00:14:29;8.93;;;2.83;;
76865;SDS011;66647;52.124;5.416;2023-04-06T00:16:56;7.97;;;2.50;;
76865;SDS011;66647;52.124;5.416;2023-04-06T00:19:23;7.93;;;3.08;;
76865;SDS011;66647;52.124;5.416;2023-04-06T00:21:49;8.35;;;2.88;;
76865;SDS011;66647;52.124;5.416;2023-04-06T00:24:16;7.43;;;2.25;;
76865;SDS011;66647;52.124;5.416;2023-04-06T00:26:42;5.85;;;2.13;;
76865;SDS011;66647;52.124;5.416;2023-04-06T00:29:09;9.05;;;2.97;;
76865;SDS011;66647;52.124;5.416;2023-04-06T00:31:36;10.85;;;3.00;;
76865;SDS011;66647;52.124;5.416;2023-04-06T00:34:03;7.28;;;2.33;;
76865;SDS011;66647;52.124;5.416;2023-04-06T00:36:29;9.27;;;2.65;;
76865;SDS011;66647;52.124;5.416;2023-04-06T00:38:56;9.63;;;3.05;;
76865;SDS011;66647;52.124;5.416;2023-04-06T00:41:23;7.80;;;2.97;;
76865;SDS011;66647;52.124;5.416;2023-04-06T00:43:49;8.32;;;2.53;;
76865;SDS011;66647;52.124;5.416;2023-04-06T00:46:16;11.30;;;3.20;;
76865;SDS011;66647;52.124;5.416;2023-04-06T00:48:43;8.32;;;2.65;;
76865;SDS011;66647;52.124;5.416;2023-04-06T00:51:09;8.43;;;2.78;;
76865;SDS011;66647;52.124;5.416;2023-04-06T00:53:36;8.25;;;2.67;;
76865;SDS011;66647;52.124;5.416;2023-04-06T00:56:03;7.20;;;2.88;;
76865;SDS011;66647;52.124;5.416;2023-04-06T00:58:39;8.48;;;2.88;;
76865;SDS011;66647;52.124;5.416;2023-04-06T01:01:08;7.63;;;2.80;;
76865;SDS011;66647;52.124;5.416;2023-04-06T01:03:35;8.40;;;2.70;;
76865;SDS011;66647;52.124;5.416;2023-04-06T01:06:02;12.20;;;3.17;;
76865;SDS011;66647;52.124;5.416;2023-04-06T01:08:34;10.82;;;3.13;;
76865;SDS011;66647;52.124;5.416;2023-04-06T01:11:28;8.25;;;2.85;;
76865;SDS011;66647;52.124;5.416;2023-04-06T01:13:57;11.05;;;2.60;;
76865;SDS011;66647;52.124;5.416;2023-04-06T01:16:26;7.85;;;2.67;;
76865;SDS011;66647;52.124;5.416;2023-04-06T01:19:09;11.57;;;3.63;;
76865;SDS011;66647;52.124;5.416;2023-04-06T01:21:44;11.45;;;3.22;;
76865;SDS011;66647;52.124;5.416;2023-04-06T01:24:25;11.10;;;3.53;;
76865;SDS011;66647;52.124;5.416;2023-04-06T01:30:17;8.82;;;2.53;;
76865;SDS011;66647;52.124;5.416;2023-04-06T01:32:52;8.60;;;3.53;;
76865;SDS011;66647;52.124;5.416;2023-04-06T01:35:31;9.43;;;3.00;;
76865;SDS011;66647;52.124;5.416;2023-04-06T01:38:09;8.63;;;2.85;;
76865;SDS011;66647;52.124;5.416;2023-04-06T01:40:36;9.70;;;3.55;;
76865;SDS011;66647;52.124;5.416;2023-04-06T01:43:03;9.30;;;3.30;;
76865;SDS011;66647;52.124;5.416;2023-04-06T01:45:36;8.90;;;3.40;;
76865;SDS011;66647;52.124;5.416;2023-04-06T01:48:12;10.60;;;4.10;;
76865;SDS011;66647;52.124;5.416;2023-04-06T01:50:39;9.90;;;3.55;;
76865;SDS011;66647;52.124;5.416;2023-04-06T01:53:07;8.63;;;3.22;;
76865;SDS011;66647;52.124;5.416;2023-04-06T01:55:35;11.98;;;3.80;;
76865;SDS011;66647;52.124;5.416;2023-04-06T01:58:16;10.98;;;3.28;;
76865;SDS011;66647;52.124;5.416;2023-04-06T02:00:43;12.80;;;3.25;;
76865;SDS011;66647;52.124;5.416;2023-04-06T02:03:10;10.32;;;3.85;;
76865;SDS011;66647;52.124;5.416;2023-04-06T02:05:40;11.10;;;4.10;;
76865;SDS011;66647;52.124;5.416;2023-04-06T02:08:27;9.18;;;3.47;;
76865;SDS011;66647;52.124;5.416;2023-04-06T02:10:53;10.45;;;3.60;;
76865;SDS011;66647;52.124;5.416;2023-04-06T02:13:28;10.20;;;3.75;;
76865;SDS011;66647;52.124;5.416;2023-04-06T02:15:55;11.65;;;4.05;;
76865;SDS011;66647;52.124;5.416;2023-04-06T02:18:21;10.18;;;4.07;;
76865;SDS011;66647;52.124;5.416;2023-04-06T02:20:48;10.60;;;4.10;;
76865;SDS011;66647;52.124;5.416;2023-04-06T02:23:16;16.48;;;3.67;;
76865;SDS011;66647;52.124;5.416;2023-04-06T02:25:43;10.55;;;3.90;;
76865;SDS011;66647;52.124;5.416;2023-04-06T02:28:09;8.38;;;3.85;;
76865;SDS011;66647;52.124;5.416;2023-04-06T02:30:36;9.75;;;3.72;;
76865;SDS011;66647;52.124;5.416;2023-04-06T02:33:03;11.23;;;3.63;;
76865;SDS011;66647;52.124;5.416;2023-04-06T02:35:38;10.27;;;3.28;;
76865;SDS011;66647;52.124;5.416;2023-04-06T02:38:06;9.98;;;4.00;;
76865;SDS011;66647;52.124;5.416;2023-04-06T02:40:33;11.35;;;4.15;;
76865;SDS011;66647;52.124;5.416;2023-04-06T02:43:08;12.05;;;4.55;;
76865;SDS011;66647;52.124;5.416;2023-04-06T02:45:35;9.88;;;4.10;;
76865;SDS011;66647;52.124;5.416;2023-04-06T02:48:02;11.18;;;4.22;;
76865;SDS011;66647;52.124;5.416;2023-04-06T02:50:30;11.32;;;4.18;;
76865;SDS011;66647;52.124;5.416;2023-04-06T02:53:01;10.57;;;4.15;;
76865;SDS011;66647;52.124;5.416;2023-04-06T02:55:27;14.70;;;4.25;;
76865;SDS011;66647;52.124;5.416;2023-04-06T02:57:54;11.85;;;3.92;;
76865;SDS011;66647;52.124;5.416;2023-04-06T03:00:26;9.57;;;3.63;;
76865;SDS011;66647;52.124;5.416;2023-04-06T03:02:52;9.68;;;3.72;;
76865;SDS011;66647;52.124;5.416;2023-04-06T03:05:19;13.82;;;3.30;;
76865;SDS011;66647;52.124;5.416;2023-04-06T03:07:46;10.77;;;4.00;;
76865;SDS011;66647;52.124;5.416;2023-04-06T03:10:21;10.45;;;3.97;;
76865;SDS011;66647;52.124;5.416;2023-04-06T03:12:48;11.15;;;4.03;;
76865;SDS011;66647;52.124;5.416;2023-04-06T03:15:18;11.60;;;3.70;;
76865;SDS011;66647;52.124;5.416;2023-04-06T03:17:49;10.38;;;3.20;;
76865;SDS011;66647;52.124;5.416;2023-04-06T03:20:29;9.30;;;4.32;;
76865;SDS011;66647;52.124;5.416;2023-04-06T03:22:56;10.13;;;3.53;;
76865;SDS011;66647;52.124;5.416;2023-04-06T03:25:27;9.35;;;3.50;;
76865;SDS011;66647;52.124;5.416;2023-04-06T03:27:58;11.32;;;3.67;;
76865;SDS011;66647;52.124;5.416;2023-04-06T03:30:25;9.98;;;4.03;;
76865;SDS011;66647;52.124;5.416;2023-04-06T03:32:52;9.90;;;3.40;;
76865;SDS011;66647;52.124;5.416;2023-04-06T03:35:21;10.10;;;3.63;;
76865;SDS011;66647;52.124;5.416;2023-04-06T03:37:48;10.75;;;3.55;;
76865;SDS011;66647;52.124;5.416;2023-04-06T03:40:16;10.30;;;3.67;;
76865;SDS011;66647;52.124;5.416;2023-04-06T03:42:43;8.60;;;3.88;;
76865;SDS011;66647;52.124;5.416;2023-04-06T03:45:12;10.65;;;3.92;;
76865;SDS011;66647;52.124;5.416;2023-04-06T03:47:45;7.38;;;2.92;;
76865;SDS011;66647;52.124;5.416;2023-04-06T03:50:13;11.48;;;3.30;;
76865;SDS011;66647;52.124;5.416;2023-04-06T03:52:40;10.77;;;4.53;;
76865;SDS011;66647;52.124;5.416;2023-04-06T03:55:06;9.98;;;3.72;;
76865;SDS011;66647;52.124;5.416;2023-04-06T03:57:35;9.93;;;3.03;;
76865;SDS011;66647;52.124;5.416;2023-04-06T04:00:02;10.65;;;4.38;;
76865;SDS011;66647;52.124;5.416;2023-04-06T04:02:37;11.02;;;3.72;;
76865;SDS011;66647;52.124;5.416;2023-04-06T04:05:04;8.82;;;3.58;;
76865;SDS011;66647;52.124;5.416;2023-04-06T04:07:31;9.20;;;3.03;;
76865;SDS011;66647;52.124;5.416;2023-04-06T04:09:59;9.05;;;3.55;;
76865;SDS011;66647;52.124;5.416;2023-04-06T04:12:26;11.38;;;3.38;;
76865;SDS011;66647;52.124;5.416;2023-04-06T04:14:52;11.13;;;3.70;;
76865;SDS011;66647;52.124;5.416;2023-04-06T04:17:19;9.13;;;3.15;;
76865;SDS011;66647;52.124;5.416;2023-04-06T04:19:45;10.20;;;3.92;;
76865;SDS011;66647;52.124;5.416;2023-04-06T04:22:13;9.05;;;3.20;;
76865;SDS011;66647;52.124;5.416;2023-04-06T04:24:41;9.35;;;2.92;;
76865;SDS011;66647;52.124;5.416;2023-04-06T04:27:08;9.98;;;3.15;;
76865;SDS011;66647;52.124;5.416;2023-04-06T04:29:36;7.38;;;3.03;;
76865;SDS011;66647;52.124;5.416;2023-04-06T04:32:07;13.23;;;3.08;;
76865;SDS011;66647;52.124;5.416;2023-04-06T04:34:34;9.57;;;4.07;;
76865;SDS011;66647;52.124;5.416;2023-04-06T04:37:03;9.93;;;3.58;;
76865;SDS011;66647;52.124;5.416;2023-04-06T04:40:03;11.02;;;3.28;;
76865;SDS011;66647;52.124;5.416;2023-04-06T04:45:11;11.25;;;3.03;;
76865;SDS011;66647;52.124;5.416;2023-04-06T04:47:38;10.43;;;3.15;;
76865;SDS011;66647;52.124;5.416;2023-04-06T04:50:06;8.60;;;3.90;;
76865;SDS011;66647;52.124;5.416;2023-04-06T04:52:38;9.88;;;3.28;;
76865;SDS011;66647;52.124;5.416;2023-04-06T04:55:13;14.02;;;3.50;;
76865;SDS011;66647;52.124;5.416;2023-04-06T04:57:42;9.55;;;3.50;;
76865;SDS011;66647;52.124;5.416;2023-04-06T05:00:09;13.43;;;3.97;;
76865;SDS011;66647;52.124;5.416;2023-04-06T05:02:39;12.38;;;3.92;;
76865;SDS011;66647;52.124;5.416;2023-04-06T05:07:52;10.55;;;3.55;;
76865;SDS011;66647;52.124;5.416;2023-04-06T05:10:36;10.90;;;3.58;;
76865;SDS011;66647;52.124;5.416;2023-04-06T05:13:06;14.85;;;4.57;;
76865;SDS011;66647;52.124;5.416;2023-04-06T05:15:33;13.10;;;4.70;;
76865;SDS011;66647;52.124;5.416;2023-04-06T05:18:19;11.43;;;3.72;;
76865;SDS011;66647;52.124;5.416;2023-04-06T05:20:46;10.88;;;3.83;;
76865;SDS011;66647;52.124;5.416;2023-04-06T05:23:13;12.15;;;4.35;;
76865;SDS011;66647;52.124;5.416;2023-04-06T05:25:40;9.95;;;4.57;;
76865;SDS011;66647;52.124;5.416;2023-04-06T05:28:15;17.25;;;4.82;;
76865;SDS011;66647;52.124;5.416;2023-04-06T05:30:43;9.77;;;3.67;;
76865;SDS011;66647;52.124;5.416;2023-04-06T05:33:11;14.48;;;5.15;;
76865;SDS011;66647;52.124;5.416;2023-04-06T05:35:58;11.68;;;4.95;;
76865;SDS011;66647;52.124;5.416;2023-04-06T05:38:27;11.05;;;4.30;;
76865;SDS011;66647;52.124;5.416;2023-04-06T05:41:11;15.02;;;5.18;;
76865;SDS011;66647;52.124;5.416;2023-04-06T05:43:40;14.80;;;5.85;;
76865;SDS011;66647;52.124;5.416;2023-04-06T05:46:07;11.52;;;4.80;;
76865;SDS011;66647;52.124;5.416;2023-04-06T05:48:33;16.38;;;5.15;;
76865;SDS011;66647;52.124;5.416;2023-04-06T05:51:01;11.52;;;4.78;;
76865;SDS011;66647;52.124;5.416;2023-04-06T05:53:41;13.43;;;5.30;;
76865;SDS011;66647;52.124;5.416;2023-04-06T05:56:07;12.45;;;4.93;;
76865;SDS011;66647;52.124;5.416;2023-04-06T05:58:55;17.48;;;5.53;;
76865;SDS011;66647;52.124;5.416;2023-04-06T06:01:27;15.20;;;5.30;;
76865;SDS011;66647;52.124;5.416;2023-04-06T06:03:55;16.30;;;6.78;;
76865;SDS011;66647;52.124;5.416;2023-04-06T06:06:28;16.52;;;5.78;;
76865;SDS011;66647;52.124;5.416;2023-04-06T06:09:25;14.65;;;5.47;;
76865;SDS011;66647;52.124;5.416;2023-04-06T06:12:07;12.43;;;5.05;;
76865;SDS011;66647;52.124;5.416;2023-04-06T06:17:29;14.90;;;6.13;;
76865;SDS011;66647;52.124;5.416;2023-04-06T06:19:56;14.20;;;5.78;;
76865;SDS011;66647;52.124;5.416;2023-04-06T06:22:25;14.18;;;5.38;;
76865;SDS011;66647;52.124;5.416;2023-04-06T06:24:51;12.00;;;5.32;;
76865;SDS011;66647;52.124;5.416;2023-04-06T06:27:19;15.23;;;5.97;;
76865;SDS011;66647;52.124;5.416;2023-04-06T06:29:51;13.02;;;5.18;;
76865;SDS011;66647;52.124;5.416;2023-04-06T06:32:17;21.42;;;6.95;;
76865;SDS011;66647;52.124;5.416;2023-04-06T06:34:48;17.77;;;6.50;;
76865;SDS011;66647;52.124;5.416;2023-04-06T06:37:17;14.80;;;5.60;;
76865;SDS011;66647;52.124;5.416;2023-04-06T06:39:44;18.17;;;5.90;;
76865;SDS011;66647;52.124;5.416;2023-04-06T06:42:11;16.70;;;5.85;;
76865;SDS011;66647;52.124;5.416;2023-04-06T06:45:17;15.40;;;5.88;;
76865;SDS011;66647;52.124;5.416;2023-04-06T06:48:07;15.65;;;6.22;;
76865;SDS011;66647;52.124;5.416;2023-04-06T06:50:34;12.68;;;5.53;;
76865;SDS011;66647;52.124;5.416;2023-04-06T06:53:01;13.10;;;5.78;;
76865;SDS011;66647;52.124;5.416;2023-04-06T06:55:27;13.05;;;6.50;;
76865;SDS011;66647;52.124;5.416;2023-04-06T06:57:54;13.90;;;6.63;;
76865;SDS011;66647;52.124;5.416;2023-04-06T07:00:21;17.35;;;6.97;;
76865;SDS011;66647;52.124;5.416;2023-04-06T07:02:49;15.43;;;6.53;;
76865;SDS011;66647;52.124;5.416;2023-04-06T07:05:19;16.88;;;7.72;;
76865;SDS011;66647;52.124;5.416;2023-04-06T07:07:56;17.85;;;6.65;;
76865;SDS011;66647;52.124;5.416;2023-04-06T07:10:24;20.10;;;8.05;;
76865;SDS011;66647;52.124;5.416;2023-04-06T07:12:50;22.00;;;10.18;;
76865;SDS011;66647;52.124;5.416;2023-04-06T07:15:17;17.98;;;8.25;;
76865;SDS011;66647;52.124;5.416;2023-04-06T07:17:44;16.73;;;7.57;;
76865;SDS011;66647;52.124;5.416;2023-04-06T07:20:12;18.70;;;8.35;;
76865;SDS011;66647;52.124;5.416;2023-04-06T07:22:41;17.20;;;7.93;;
76865;SDS011;66647;52.124;5.416;2023-04-06T07:25:22;15.20;;;6.45;;
76865;SDS011;66647;52.124;5.416;2023-04-06T07:27:51;21.83;;;7.68;;
76865;SDS011;66647;52.124;5.416;2023-04-06T07:30:24;16.23;;;6.80;;
76865;SDS011;66647;52.124;5.416;2023-04-06T07:32:58;18.50;;;6.93;;
76865;SDS011;66647;52.124;5.416;2023-04-06T07:35:28;16.48;;;7.53;;
76865;SDS011;66647;52.124;5.416;2023-04-06T07:40:49;19.48;;;7.28;;
76865;SDS011;66647;52.124;5.416;2023-04-06T07:43:16;20.30;;;7.18;;
76865;SDS011;66647;52.124;5.416;2023-04-06T07:45:43;17.48;;;7.10;;
76865;SDS011;66647;52.124;5.416;2023-04-06T07:48:11;21.20;;;6.90;;
76865;SDS011;66647;52.124;5.416;2023-04-06T07:50:38;14.98;;;8.00;;
76865;SDS011;66647;52.124;5.416;2023-04-06T07:53:05;17.00;;;6.90;;
76865;SDS011;66647;52.124;5.416;2023-04-06T07:55:33;17.05;;;8.68;;
76865;SDS011;66647;52.124;5.416;2023-04-06T07:57:59;16.88;;;7.03;;
76865;SDS011;66647;52.124;5.416;2023-04-06T08:00:26;16.13;;;6.55;;
76865;SDS011;66647;52.124;5.416;2023-04-06T08:02:57;21.05;;;7.70;;
76865;SDS011;66647;52.124;5.416;2023-04-06T08:05:26;16.38;;;6.85;;
76865;SDS011;66647;52.124;5.416;2023-04-06T08:07:56;18.13;;;6.55;;
76865;SDS011;66647;52.124;5.416;2023-04-06T08:10:28;16.88;;;8.60;;
76865;SDS011;66647;52.124;5.416;2023-04-06T08:15:47;15.63;;;6.18;;
76865;SDS011;66647;52.124;5.416;2023-04-06T08:18:14;19.80;;;7.40;;
76865;SDS011;66647;52.124;5.416;2023-04-06T08:20:43;18.05;;;7.32;;
76865;SDS011;66647;52.124;5.416;2023-04-06T08:23:16;22.10;;;7.47;;
76865;SDS011;66647;52.124;5.416;2023-04-06T08:25:45;18.95;;;7.95;;
76865;SDS011;66647;52.124;5.416;2023-04-06T08:28:11;19.58;;;8.13;;
76865;SDS011;66647;52.124;5.416;2023-04-06T08:30:41;16.90;;;7.57;;
76865;SDS011;66647;52.124;5.416;2023-04-06T08:33:09;21.15;;;7.78;;
76865;SDS011;66647;52.124;5.416;2023-04-06T08:35:36;20.45;;;7.40;;
76865;SDS011;66647;52.124;5.416;2023-04-06T08:38:03;20.65;;;8.80;;
76865;SDS011;66647;52.124;5.416;2023-04-06T08:40:38;21.80;;;7.60;;
76865;SDS011;66647;52.124;5.416;2023-04-06T08:43:09;16.23;;;7.50;;
76865;SDS011;66647;52.124;5.416;2023-04-06T08:45:40;15.27;;;7.13;;
76865;SDS011;66647;52.124;5.416;2023-04-06T08:48:07;19.90;;;8.00;;
76865;SDS011;66647;52.124;5.416;2023-04-06T08:50:35;18.00;;;7.68;;
76865;SDS011;66647;52.124;5.416;2023-04-06T08:53:02;16.45;;;7.35;;
76865;SDS011;66647;52.124;5.416;2023-04-06T08:55:29;18.23;;;8.15;;
76865;SDS011;66647;52.124;5.416;2023-04-06T08:57:55;20.10;;;8.25;;
76865;SDS011;66647;52.124;5.416;2023-04-06T09:00:22;18.88;;;7.93;;
76865;SDS011;66647;52.124;5.416;2023-04-06T09:02:51;17.75;;;7.68;;
76865;SDS011;66647;52.124;5.416;2023-04-06T09:05:23;18.80;;;8.00;;
76865;SDS011;66647;52.124;5.416;2023-04-06T09:07:51;22.45;;;9.77;;
76865;SDS011;66647;52.124;5.416;2023-04-06T09:10:18;21.45;;;9.52;;
76865;SDS011;66647;52.124;5.416;2023-04-06T09:12:44;18.30;;;8.93;;
76865;SDS011;66647;52.124;5.416;2023-04-06T09:15:29;17.70;;;9.15;;
76865;SDS011;66647;52.124;5.416;2023-04-06T09:17:58;20.00;;;9.85;;
76865;SDS011;66647;52.124;5.416;2023-04-06T09:20:34;20.33;;;8.82;;
76865;SDS011;66647;52.124;5.416;2023-04-06T09:23:00;19.42;;;8.93;;
76865;SDS011;66647;52.124;5.416;2023-04-06T09:25:30;20.20;;;10.32;;
76865;SDS011;66647;52.124;5.416;2023-04-06T09:28:09;20.83;;;9.48;;
76865;SDS011;66647;52.124;5.416;2023-04-06T09:30:36;19.05;;;8.40;;
76865;SDS011;66647;52.124;5.416;2023-04-06T09:33:14;23.42;;;8.80;;
76865;SDS011;66647;52.124;5.416;2023-04-06T09:35:54;23.90;;;9.02;;
76865;SDS011;66647;52.124;5.416;2023-04-06T09:38:22;16.50;;;7.88;;
76865;SDS011;66647;52.124;5.416;2023-04-06T09:44:08;21.20;;;8.70;;
76865;SDS011;66647;52.124;5.416;2023-04-06T09:46:46;23.45;;;9.13;;
76865;SDS011;66647;52.124;5.416;2023-04-06T09:49:50;17.88;;;7.57;;
76865;SDS011;66647;52.124;5.416;2023-04-06T09:52:21;16.15;;;7.75;;
76865;SDS011;66647;52.124;5.416;2023-04-06T09:54:52;20.05;;;9.70;;
76865;SDS011;66647;52.124;5.416;2023-04-06T09:57:56;22.08;;;8.43;;
76865;SDS011;66647;52.124;5.416;2023-04-06T10:00:48;19.33;;;8.93;;
76865;SDS011;66647;52.124;5.416;2023-04-06T10:03:41;24.95;;;10.18;;
76865;SDS011;66647;52.124;5.416;2023-04-06T10:06:14;21.40;;;8.80;;
76865;SDS011;66647;52.124;5.416;2023-04-06T10:08:47;21.58;;;9.43;;
76865;SDS011;66647;52.124;5.416;2023-04-06T10:11:22;22.80;;;11.40;;
76865;SDS011;66647;52.124;5.416;2023-04-06T10:13:49;18.95;;;10.07;;
76865;SDS011;66647;52.124;5.416;2023-04-06T10:16:16;26.15;;;9.65;;
76865;SDS011;66647;52.124;5.416;2023-04-06T10:18:45;17.20;;;7.63;;
76865;SDS011;66647;52.124;5.416;2023-04-06T10:21:23;18.85;;;7.53;;
76865;SDS011;66647;52.124;5.416;2023-04-06T10:24:08;17.95;;;6.93;;
76865;SDS011;66647;52.124;5.416;2023-04-06T10:26:39;17.02;;;6.78;;
76865;SDS011;66647;52.124;5.416;2023-04-06T10:29:24;19.35;;;6.47;;
76865;SDS011;66647;52.124;5.416;2023-04-06T10:31:51;15.23;;;5.90;;
76865;SDS011;66647;52.124;5.416;2023-04-06T10:38:34;14.57;;;5.63;;
76865;SDS011;66647;52.124;5.416;2023-04-06T10:41:06;14.73;;;5.20;;
76865;SDS011;66647;52.124;5.416;2023-04-06T10:43:38;16.02;;;4.95;;
76865;SDS011;66647;52.124;5.416;2023-04-06T10:46:07;8.50;;;3.72;;
76865;SDS011;66647;52.124;5.416;2023-04-06T10:51:53;9.07;;;3.35;;
76865;SDS011;66647;52.124;5.416;2023-04-06T10:54:21;7.38;;;2.53;;
76865;SDS011;66647;52.124;5.416;2023-04-06T10:56:49;6.05;;;2.35;;
76865;SDS011;66647;52.124;5.416;2023-04-06T11:02:18;6.53;;;2.38;;
76865;SDS011;66647;52.124;5.416;2023-04-06T11:04:59;9.27;;;2.58;;
76865;SDS011;66647;52.124;5.416;2023-04-06T11:07:26;7.07;;;2.10;;
76865;SDS011;66647;52.124;5.416;2023-04-06T11:09:53;13.77;;;3.15;;
76865;SDS011;66647;52.124;5.416;2023-04-06T11:12:44;5.78;;;1.52;;
76865;SDS011;66647;52.124;5.416;2023-04-06T11:18:20;7.07;;;1.88;;
76865;SDS011;66647;52.124;5.416;2023-04-06T11:20:54;4.38;;;1.27;;
76865;SDS011;66647;52.124;5.416;2023-04-06T11:23:24;7.30;;;1.80;;
76865;SDS011;66647;52.124;5.416;2023-04-06T11:25:52;5.85;;;1.52;;
76865;SDS011;66647;52.124;5.416;2023-04-06T11:28:19;5.97;;;1.52;;
76865;SDS011;66647;52.124;5.416;2023-04-06T11:30:46;5.53;;;1.63;;
76865;SDS011;66647;52.124;5.416;2023-04-06T11:33:19;5.53;;;1.63;;
76865;SDS011;66647;52.124;5.416;2023-04-06T11:35:48;6.05;;;1.73;;
76865;SDS011;66647;52.124;5.416;2023-04-06T11:38:14;7.13;;;1.88;;
76865;SDS011;66647;52.124;5.416;2023-04-06T11:40:41;6.50;;;1.85;;
76865;SDS011;66647;52.124;5.416;2023-04-06T11:43:10;7.38;;;1.70;;
76865;SDS011;66647;52.124;5.416;2023-04-06T11:45:43;5.80;;;1.48;;
76865;SDS011;66647;52.124;5.416;2023-04-06T11:48:19;7.57;;;2.00;;
76865;SDS011;66647;52.124;5.416;2023-04-06T11:50:47;7.13;;;1.75;;
76865;SDS011;66647;52.124;5.416;2023-04-06T11:53:21;4.32;;;1.08;;
76865;SDS011;66647;52.124;5.416;2023-04-06T11:55:47;5.35;;;1.45;;
76865;SDS011;66647;52.124;5.416;2023-04-06T11:58:14;6.90;;;1.60;;
76865;SDS011;66647;52.124;5.416;2023-04-06T12:00:43;6.07;;;1.88;;
76865;SDS011;66647;52.124;5.416;2023-04-06T12:03:13;6.32;;;2.03;;
76865;SDS011;66647;52.124;5.416;2023-04-06T12:05:43;5.72;;;1.60;;
76865;SDS011;66647;52.124;5.416;2023-04-06T12:08:10;6.50;;;1.90;;
76865;SDS011;66647;52.124;5.416;2023-04-06T12:10:36;6.50;;;1.80;;
76865;SDS011;66647;52.124;5.416;2023-04-06T12:13:03;8.30;;;2.67;;
76865;SDS011;66647;52.124;5.416;2023-04-06T12:15:30;8.07;;;2.08;;
76865;SDS011;66647;52.124;5.416;2023-04-06T12:17:58;5.80;;;2.03;;
76865;SDS011;66647;52.124;5.416;2023-04-06T12:20:25;7.15;;;2.15;;
76865;SDS011;66647;52.124;5.416;2023-04-06T12:22:53;8.32;;;2.20;;
76865;SDS011;66647;52.124;5.416;2023-04-06T12:25:20;6.25;;;2.05;;
76865;SDS011;66647;52.124;5.416;2023-04-06T12:27:47;6.30;;;2.42;;
76865;SDS011;66647;52.124;5.416;2023-04-06T12:30:21;7.50;;;2.75;;
76865;SDS011;66647;52.124;5.416;2023-04-06T12:32:47;8.07;;;3.22;;
76865;SDS011;66647;52.124;5.416;2023-04-06T12:35:17;8.32;;;2.65;;
76865;SDS011;66647;52.124;5.416;2023-04-06T12:37:44;8.77;;;3.33;;
76865;SDS011;66647;52.124;5.416;2023-04-06T12:40:14;9.25;;;2.85;;
76865;SDS011;66647;52.124;5.416;2023-04-06T12:42:44;7.85;;;2.55;;
76865;SDS011;66647;52.124;5.416;2023-04-06T12:45:13;8.70;;;2.55;;
76865;SDS011;66647;52.124;5.416;2023-04-06T12:47:42;7.93;;;2.55;;
76865;SDS011;66647;52.124;5.416;2023-04-06T12:50:09;6.15;;;2.35;;
76865;SDS011;66647;52.124;5.416;2023-04-06T12:52:39;8.23;;;2.78;;
76865;SDS011;66647;52.124;5.416;2023-04-06T12:55:06;9.07;;;2.55;;
76865;SDS011;66647;52.124;5.416;2023-04-06T12:57:33;9.25;;;2.35;;
76865;SDS011;66647;52.124;5.416;2023-04-06T13:00:00;6.68;;;2.53;;
76865;SDS011;66647;52.124;5.416;2023-04-06T13:02:34;6.95;;;2.53;;
76865;SDS011;66647;52.124;5.416;2023-04-06T13:05:06;8.35;;;2.42;;
76865;SDS011;66647;52.124;5.416;2023-04-06T13:07:36;7.10;;;2.40;;
76865;SDS011;66647;52.124;5.416;2023-04-06T13:10:05;7.05;;;2.75;;
76865;SDS011;66647;52.124;5.416;2023-04-06T13:12:32;6.90;;;2.95;;
76865;SDS011;66647;52.124;5.416;2023-04-06T13:14:59;9.75;;;2.83;;
76865;SDS011;66647;52.124;5.416;2023-04-06T13:17:27;9.05;;;3.28;;
76865;SDS011;66647;52.124;5.416;2023-04-06T13:20:04;8.73;;;3.80;;
76865;SDS011;66647;52.124;5.416;2023-04-06T13:22:40;7.72;;;2.40;;
76865;SDS011;66647;52.124;5.416;2023-04-06T13:25:07;8.10;;;3.20;;
76865;SDS011;66647;52.124;5.416;2023-04-06T13:30:26;8.38;;;2.45;;
76865;SDS011;66647;52.124;5.416;2023-04-06T13:32:52;7.97;;;2.38;;
76865;SDS011;66647;52.124;5.416;2023-04-06T13:35:19;12.23;;;3.60;;
76865;SDS011;66647;52.124;5.416;2023-04-06T13:37:46;7.90;;;3.22;;
76865;SDS011;66647;52.124;5.416;2023-04-06T13:40:16;7.82;;;2.90;;
76865;SDS011;66647;52.124;5.416;2023-04-06T13:42:43;8.63;;;3.40;;
76865;SDS011;66647;52.124;5.416;2023-04-06T13:45:11;8.73;;;3.35;;
76865;SDS011;66647;52.124;5.416;2023-04-06T13:47:38;8.75;;;3.45;;
76865;SDS011;66647;52.124;5.416;2023-04-06T13:50:05;9.02;;;2.97;;
76865;SDS011;66647;52.124;5.416;2023-04-06T13:52:32;9.93;;;3.22;;
76865;SDS011;66647;52.124;5.416;2023-04-06T13:54:58;9.40;;;3.90;;
76865;SDS011;66647;52.124;5.416;2023-04-06T13:57:25;6.95;;;2.60;;
76865;SDS011;66647;52.124;5.416;2023-04-06T13:59:51;8.95;;;3.65;;
76865;SDS011;66647;52.124;5.416;2023-04-06T14:02:18;9.18;;;2.72;;
76865;SDS011;66647;52.124;5.416;2023-04-06T14:04:46;8.10;;;3.47;;
76865;SDS011;66647;52.124;5.416;2023-04-06T14:07:12;8.45;;;3.22;;
76865;SDS011;66647;52.124;5.416;2023-04-06T14:09:40;7.85;;;2.67;;
76865;SDS011;66647;52.124;5.416;2023-04-06T14:12:06;7.35;;;3.22;;
76865;SDS011;66647;52.124;5.416;2023-04-06T14:14:33;9.77;;;3.60;;
76865;SDS011;66647;52.124;5.416;2023-04-06T14:16:59;7.15;;;3.45;;
76865;SDS011;66647;52.124;5.416;2023-04-06T14:19:26;9.27;;;3.05;;
76865;SDS011;66647;52.124;5.416;2023-04-06T14:21:53;7.93;;;3.10;;
76865;SDS011;66647;52.124;5.416;2023-04-06T14:24:20;6.55;;;2.50;;
76865;SDS011;66647;52.124;5.416;2023-04-06T14:26:48;8.25;;;3.55;;
76865;SDS011;66647;52.124;5.416;2023-04-06T14:29:14;8.57;;;3.28;;
76865;SDS011;66647;52.124;5.416;2023-04-06T14:31:41;8.18;;;2.88;;
76865;SDS011;66647;52.124;5.416;2023-04-06T14:34:08;9.50;;;3.28;;
76865;SDS011;66647;52.124;5.416;2023-04-06T14:36:35;13.48;;;4.32;;
76865;SDS011;66647;52.124;5.416;2023-04-06T14:39:03;9.27;;;3.50;;
76865;SDS011;66647;52.124;5.416;2023-04-06T14:41:31;7.75;;;3.05;;
76865;SDS011;66647;52.124;5.416;2023-04-06T14:43:58;8.98;;;3.17;;
76865;SDS011;66647;52.124;5.416;2023-04-06T14:46:25;9.23;;;3.35;;
76865;SDS011;66647;52.124;5.416;2023-04-06T14:48:56;8.90;;;3.08;;
76865;SDS011;66647;52.124;5.416;2023-04-06T14:51:24;9.35;;;3.15;;
76865;SDS011;66647;52.124;5.416;2023-04-06T14:53:51;8.57;;;2.92;;
76865;SDS011;66647;52.124;5.416;2023-04-06T14:56:23;8.68;;;3.22;;
76865;SDS011;66647;52.124;5.416;2023-04-06T14:58:50;7.82;;;3.38;;
76865;SDS011;66647;52.124;5.416;2023-04-06T15:01:18;8.63;;;3.30;;
76865;SDS011;66647;52.124;5.416;2023-04-06T15:03:47;11.32;;;3.55;;
76865;SDS011;66647;52.124;5.416;2023-04-06T15:06:15;9.45;;;3.30;;
76865;SDS011;66647;52.124;5.416;2023-04-06T15:08:42;10.18;;;3.70;;
76865;SDS011;66647;52.124;5.416;2023-04-06T15:11:10;8.13;;;3.17;;
76865;SDS011;66647;52.124;5.416;2023-04-06T15:13:38;9.13;;;3.35;;
76865;SDS011;66647;52.124;5.416;2023-04-06T15:16:06;7.80;;;3.33;;
76865;SDS011;66647;52.124;5.416;2023-04-06T15:18:33;11.82;;;3.13;;
76865;SDS011;66647;52.124;5.416;2023-04-06T15:21:02;8.50;;;2.90;;
76865;SDS011;66647;52.124;5.416;2023-04-06T15:23:29;9.70;;;3.33;;
76865;SDS011;66647;52.124;5.416;2023-04-06T15:25:57;8.60;;;3.42;;
76865;SDS011;66647;52.124;5.416;2023-04-06T15:28:24;8.50;;;3.72;;
76865;SDS011;66647;52.124;5.416;2023-04-06T15:30:50;8.80;;;3.00;;
76865;SDS011;66647;52.124;5.416;2023-04-06T15:33:17;9.20;;;3.47;;
76865;SDS011;66647;52.124;5.416;2023-04-06T15:35:46;8.20;;;3.00;;